sensor_id;sensor_type;location;lat;lon;timestamp;temperature;humidity
12887;DHT22;6511;49.746;6.094;2022-07-23T00:01:24;18.70;99.90
12887;DHT22;6511;49.746;6.094;2022-07-23T00:03:50;18.70;99.90
12887;DHT22;6511;49.746;6.094;2022-07-23T00:06:17;18.80;99.90
12887;DHT22;6511;49.746;6.094;2022-07-23T00:08:43;18.90;99.90
12887;DHT22;6511;49.746;6.094;2022-07-23T00:11:09;18.90;99.90
12887;DHT22;6511;49.746;6.094;2022-07-23T00:13:35;19.00;99.90
12887;DHT22;6511;49.746;6.094;2022-07-23T00:16:01;18.90;99.90
12887;DHT22;6511;49.746;6.094;2022-07-23T00:18:27;18.90;99.90
12887;DHT22;6511;49.746;6.094;2022-07-23T00:20:53;18.90;99.90
12887;DHT22;6511;49.746;6.094;2022-07-23T00:23:19;18.90;99.90
12887;DHT22;6511;49.746;6.094;2022-07-23T00:25:44;19.00;99.90
12887;DHT22;6511;49.746;6.094;2022-07-23T00:28:11;19.00;99.90
12887;DHT22;6511;49.746;6.094;2022-07-23T00:30:37;18.90;99.90
12887;DHT22;6511;49.746;6.094;2022-07-23T00:33:06;18.90;99.90
12887;DHT22;6511;49.746;6.094;2022-07-23T00:35:34;18.60;99.90
12887;DHT22;6511;49.746;6.094;2022-07-23T00:38:02;18.50;99.90
12887;DHT22;6511;49.746;6.094;2022-07-23T00:40:28;18.50;99.90
12887;DHT22;6511;49.746;6.094;2022-07-23T00:42:54;18.50;99.90
12887;DHT22;6511;49.746;6.094;2022-07-23T00:45:20;18.40;99.90
12887;DHT22;6511;49.746;6.094;2022-07-23T00:47:49;18.40;99.90
12887;DHT22;6511;49.746;6.094;2022-07-23T00:50:14;18.40;99.90
12887;DHT22;6511;49.746;6.094;2022-07-23T00:52:41;18.50;99.90
12887;DHT22;6511;49.746;6.094;2022-07-23T00:55:07;18.60;99.90
12887;DHT22;6511;49.746;6.094;2022-07-23T00:57:34;18.60;99.90
12887;DHT22;6511;49.746;6.094;2022-07-23T01:00:00;18.70;99.90
12887;DHT22;6511;49.746;6.094;2022-07-23T01:02:27;18.70;99.90
12887;DHT22;6511;49.746;6.094;2022-07-23T01:04:53;18.80;99.90
12887;DHT22;6511;49.746;6.094;2022-07-23T01:07:19;18.90;99.90
12887;DHT22;6511;49.746;6.094;2022-07-23T01:09:45;18.90;99.90
12887;DHT22;6511;49.746;6.094;2022-07-23T01:12:12;18.80;99.90
12887;DHT22;6511;49.746;6.094;2022-07-23T01:14:38;18.50;99.90
12887;DHT22;6511;49.746;6.094;2022-07-23T01:17:03;18.30;99.90
12887;DHT22;6511;49.746;6.094;2022-07-23T01:19:29;18.10;99.90
12887;DHT22;6511;49.746;6.094;2022-07-23T01:21:57;18.10;99.90
12887;DHT22;6511;49.746;6.094;2022-07-23T01:24:23;18.00;99.90
12887;DHT22;6511;49.746;6.094;2022-07-23T01:26:50;17.70;99.90
12887;DHT22;6511;49.746;6.094;2022-07-23T01:29:16;17.60;99.90
12887;DHT22;6511;49.746;6.094;2022-07-23T01:31:43;17.50;99.90
12887;DHT22;6511;49.746;6.094;2022-07-23T01:34:09;17.50;99.90
12887;DHT22;6511;49.746;6.094;2022-07-23T01:36:35;17.60;99.90
12887;DHT22;6511;49.746;6.094;2022-07-23T01:39:03;17.60;99.90
12887;DHT22;6511;49.746;6.094;2022-07-23T01:41:29;17.50;99.90
12887;DHT22;6511;49.746;6.094;2022-07-23T01:43:54;17.60;99.90
12887;DHT22;6511;49.746;6.094;2022-07-23T01:46:20;17.70;99.90
12887;DHT22;6511;49.746;6.094;2022-07-23T01:48:46;17.60;99.90
12887;DHT22;6511;49.746;6.094;2022-07-23T01:51:11;17.60;99.90
12887;DHT22;6511;49.746;6.094;2022-07-23T01:53:37;17.70;99.90
12887;DHT22;6511;49.746;6.094;2022-07-23T01:56:03;17.70;99.90
12887;DHT22;6511;49.746;6.094;2022-07-23T01:58:29;17.70;99.90
12887;DHT22;6511;49.746;6.094;2022-07-23T02:00:55;17.60;99.90
12887;DHT22;6511;49.746;6.094;2022-07-23T02:03:21;17.40;99.90
12887;DHT22;6511;49.746;6.094;2022-07-23T02:05:47;17.20;99.90
12887;DHT22;6511;49.746;6.094;2022-07-23T02:08:13;17.30;99.90
12887;DHT22;6511;49.746;6.094;2022-07-23T02:10:38;17.30;99.90
12887;DHT22;6511;49.746;6.094;2022-07-23T02:13:04;17.30;99.90
12887;DHT22;6511;49.746;6.094;2022-07-23T02:15:30;17.30;99.90
12887;DHT22;6511;49.746;6.094;2022-07-23T02:17:56;17.20;99.90
12887;DHT22;6511;49.746;6.094;2022-07-23T02:20:22;17.20;99.90
12887;DHT22;6511;49.746;6.094;2022-07-23T02:22:48;17.10;99.90
12887;DHT22;6511;49.746;6.094;2022-07-23T02:25:14;17.00;99.90
12887;DHT22;6511;49.746;6.094;2022-07-23T02:27:39;17.00;99.90
12887;DHT22;6511;49.746;6.094;2022-07-23T02:30:06;16.80;99.90
12887;DHT22;6511;49.746;6.094;2022-07-23T02:32:32;16.70;99.90
12887;DHT22;6511;49.746;6.094;2022-07-23T02:34:58;16.40;99.90
12887;DHT22;6511;49.746;6.094;2022-07-23T02:37:24;16.30;99.90
12887;DHT22;6511;49.746;6.094;2022-07-23T02:39:49;16.30;99.90
12887;DHT22;6511;49.746;6.094;2022-07-23T02:42:16;16.40;99.90
12887;DHT22;6511;49.746;6.094;2022-07-23T02:44:41;16.40;99.90
12887;DHT22;6511;49.746;6.094;2022-07-23T02:47:07;16.30;99.90
12887;DHT22;6511;49.746;6.094;2022-07-23T02:49:33;16.20;99.90
12887;DHT22;6511;49.746;6.094;2022-07-23T02:51:59;16.20;99.90
12887;DHT22;6511;49.746;6.094;2022-07-23T02:54:26;16.30;99.90
12887;DHT22;6511;49.746;6.094;2022-07-23T02:56:52;16.20;99.90
12887;DHT22;6511;49.746;6.094;2022-07-23T02:59:18;16.10;99.90
12887;DHT22;6511;49.746;6.094;2022-07-23T03:01:44;16.10;99.90
12887;DHT22;6511;49.746;6.094;2022-07-23T03:04:09;16.00;99.90
12887;DHT22;6511;49.746;6.094;2022-07-23T03:06:35;16.00;99.90
12887;DHT22;6511;49.746;6.094;2022-07-23T03:09:01;15.90;99.90
12887;DHT22;6511;49.746;6.094;2022-07-23T03:11:27;15.90;99.90
12887;DHT22;6511;49.746;6.094;2022-07-23T03:13:53;15.90;99.90
12887;DHT22;6511;49.746;6.094;2022-07-23T03:16:18;15.90;99.90
12887;DHT22;6511;49.746;6.094;2022-07-23T03:18:44;15.90;99.90
12887;DHT22;6511;49.746;6.094;2022-07-23T03:21:09;15.70;99.90
12887;DHT22;6511;49.746;6.094;2022-07-23T03:23:35;15.60;99.90
12887;DHT22;6511;49.746;6.094;2022-07-23T03:26:01;15.70;99.90
12887;DHT22;6511;49.746;6.094;2022-07-23T03:28:27;15.70;99.90
12887;DHT22;6511;49.746;6.094;2022-07-23T03:30:52;15.80;99.90
12887;DHT22;6511;49.746;6.094;2022-07-23T03:33:19;15.80;99.90
12887;DHT22;6511;49.746;6.094;2022-07-23T03:35:46;15.90;99.90
12887;DHT22;6511;49.746;6.094;2022-07-23T03:38:12;15.90;99.90
12887;DHT22;6511;49.746;6.094;2022-07-23T03:40:38;15.90;99.90
12887;DHT22;6511;49.746;6.094;2022-07-23T03:43:04;15.80;99.90
12887;DHT22;6511;49.746;6.094;2022-07-23T03:45:31;15.80;99.90
12887;DHT22;6511;49.746;6.094;2022-07-23T03:47:56;15.90;99.90
12887;DHT22;6511;49.746;6.094;2022-07-23T03:50:22;15.90;99.90
12887;DHT22;6511;49.746;6.094;2022-07-23T03:52:48;15.80;99.90
12887;DHT22;6511;49.746;6.094;2022-07-23T03:55:14;15.80;99.90
12887;DHT22;6511;49.746;6.094;2022-07-23T03:57:40;15.70;99.90
12887;DHT22;6511;49.746;6.094;2022-07-23T04:00:08;15.70;99.90
12887;DHT22;6511;49.746;6.094;2022-07-23T04:02:38;15.70;99.90
12887;DHT22;6511;49.746;6.094;2022-07-23T04:05:05;15.60;99.90
12887;DHT22;6511;49.746;6.094;2022-07-23T04:07:30;15.50;99.90
12887;DHT22;6511;49.746;6.094;2022-07-23T04:09:57;15.40;99.90
12887;DHT22;6511;49.746;6.094;2022-07-23T04:12:23;15.40;99.90
12887;DHT22;6511;49.746;6.094;2022-07-23T04:14:49;15.50;99.90
12887;DHT22;6511;49.746;6.094;2022-07-23T04:17:14;15.50;99.90
12887;DHT22;6511;49.746;6.094;2022-07-23T04:19:40;15.60;99.90
12887;DHT22;6511;49.746;6.094;2022-07-23T04:22:11;15.50;99.90
12887;DHT22;6511;49.746;6.094;2022-07-23T04:24:37;15.60;99.90
12887;DHT22;6511;49.746;6.094;2022-07-23T04:27:03;15.70;99.90
12887;DHT22;6511;49.746;6.094;2022-07-23T04:29:29;15.60;99.90
12887;DHT22;6511;49.746;6.094;2022-07-23T04:31:55;15.60;99.90
12887;DHT22;6511;49.746;6.094;2022-07-23T04:34:20;15.60;99.90
12887;DHT22;6511;49.746;6.094;2022-07-23T04:36:46;15.60;99.90
12887;DHT22;6511;49.746;6.094;2022-07-23T04:39:12;15.50;99.90
12887;DHT22;6511;49.746;6.094;2022-07-23T04:41:37;15.50;99.90
12887;DHT22;6511;49.746;6.094;2022-07-23T04:44:03;15.60;99.90
12887;DHT22;6511;49.746;6.094;2022-07-23T04:46:29;15.60;99.90
12887;DHT22;6511;49.746;6.094;2022-07-23T04:48:55;15.80;99.90
12887;DHT22;6511;49.746;6.094;2022-07-23T04:51:21;16.00;99.90
12887;DHT22;6511;49.746;6.094;2022-07-23T04:53:46;16.00;99.90
12887;DHT22;6511;49.746;6.094;2022-07-23T04:56:12;16.00;99.90
12887;DHT22;6511;49.746;6.094;2022-07-23T04:58:38;15.90;99.90
12887;DHT22;6511;49.746;6.094;2022-07-23T05:01:04;16.10;99.90
12887;DHT22;6511;49.746;6.094;2022-07-23T05:03:29;16.10;99.90
12887;DHT22;6511;49.746;6.094;2022-07-23T05:05:55;16.00;99.90
12887;DHT22;6511;49.746;6.094;2022-07-23T05:08:21;15.90;99.90
12887;DHT22;6511;49.746;6.094;2022-07-23T05:10:47;16.00;99.90
12887;DHT22;6511;49.746;6.094;2022-07-23T05:13:14;16.10;99.90
12887;DHT22;6511;49.746;6.094;2022-07-23T05:15:41;16.20;99.90
12887;DHT22;6511;49.746;6.094;2022-07-23T05:18:06;16.30;99.90
12887;DHT22;6511;49.746;6.094;2022-07-23T05:20:32;16.50;99.90
12887;DHT22;6511;49.746;6.094;2022-07-23T05:22:57;16.70;99.90
12887;DHT22;6511;49.746;6.094;2022-07-23T05:25:23;16.80;99.90
12887;DHT22;6511;49.746;6.094;2022-07-23T05:27:49;16.90;99.90
12887;DHT22;6511;49.746;6.094;2022-07-23T05:30:15;17.00;99.90
12887;DHT22;6511;49.746;6.094;2022-07-23T05:32:40;17.00;99.90
12887;DHT22;6511;49.746;6.094;2022-07-23T05:35:07;17.10;99.90
12887;DHT22;6511;49.746;6.094;2022-07-23T05:37:33;17.20;99.90
12887;DHT22;6511;49.746;6.094;2022-07-23T05:40:03;17.20;99.90
12887;DHT22;6511;49.746;6.094;2022-07-23T05:42:29;17.10;99.90
12887;DHT22;6511;49.746;6.094;2022-07-23T05:44:54;17.10;99.90
12887;DHT22;6511;49.746;6.094;2022-07-23T05:47:20;17.10;99.90
12887;DHT22;6511;49.746;6.094;2022-07-23T05:49:46;17.30;99.90
12887;DHT22;6511;49.746;6.094;2022-07-23T05:52:14;17.30;99.90
12887;DHT22;6511;49.746;6.094;2022-07-23T05:54:40;17.40;99.90
12887;DHT22;6511;49.746;6.094;2022-07-23T05:57:06;17.50;99.90
12887;DHT22;6511;49.746;6.094;2022-07-23T05:59:31;17.60;99.90
12887;DHT22;6511;49.746;6.094;2022-07-23T06:01:57;17.80;99.90
12887;DHT22;6511;49.746;6.094;2022-07-23T06:04:23;17.90;99.90
12887;DHT22;6511;49.746;6.094;2022-07-23T06:06:48;18.10;99.90
12887;DHT22;6511;49.746;6.094;2022-07-23T06:09:14;18.20;99.90
12887;DHT22;6511;49.746;6.094;2022-07-23T06:11:40;18.20;99.90
12887;DHT22;6511;49.746;6.094;2022-07-23T06:14:06;18.20;99.90
12887;DHT22;6511;49.746;6.094;2022-07-23T06:16:31;18.30;99.90
12887;DHT22;6511;49.746;6.094;2022-07-23T06:18:57;18.20;99.90
12887;DHT22;6511;49.746;6.094;2022-07-23T06:21:23;18.10;99.90
12887;DHT22;6511;49.746;6.094;2022-07-23T06:23:49;18.20;99.90
12887;DHT22;6511;49.746;6.094;2022-07-23T06:26:14;18.40;99.90
12887;DHT22;6511;49.746;6.094;2022-07-23T06:28:40;18.40;99.90
12887;DHT22;6511;49.746;6.094;2022-07-23T06:31:06;18.40;99.90
12887;DHT22;6511;49.746;6.094;2022-07-23T06:33:32;18.60;99.90
12887;DHT22;6511;49.746;6.094;2022-07-23T06:35:58;18.60;99.90
12887;DHT22;6511;49.746;6.094;2022-07-23T06:38:24;19.00;99.90
12887;DHT22;6511;49.746;6.094;2022-07-23T06:40:50;19.10;99.90
12887;DHT22;6511;49.746;6.094;2022-07-23T06:43:16;19.10;99.90
12887;DHT22;6511;49.746;6.094;2022-07-23T06:45:41;19.00;99.90
12887;DHT22;6511;49.746;6.094;2022-07-23T06:48:07;19.00;99.90
12887;DHT22;6511;49.746;6.094;2022-07-23T06:50:32;19.00;99.90
12887;DHT22;6511;49.746;6.094;2022-07-23T06:52:58;18.90;99.90
12887;DHT22;6511;49.746;6.094;2022-07-23T06:55:24;19.10;99.90
12887;DHT22;6511;49.746;6.094;2022-07-23T06:57:49;19.00;99.90
12887;DHT22;6511;49.746;6.094;2022-07-23T07:00:15;19.10;99.90
12887;DHT22;6511;49.746;6.094;2022-07-23T07:02:41;19.20;99.90
12887;DHT22;6511;49.746;6.094;2022-07-23T07:05:09;19.40;99.90
12887;DHT22;6511;49.746;6.094;2022-07-23T07:07:35;19.30;99.90
12887;DHT22;6511;49.746;6.094;2022-07-23T07:10:02;19.50;99.90
12887;DHT22;6511;49.746;6.094;2022-07-23T07:12:27;19.50;99.90
12887;DHT22;6511;49.746;6.094;2022-07-23T07:14:53;19.60;99.90
12887;DHT22;6511;49.746;6.094;2022-07-23T07:17:19;19.60;99.90
12887;DHT22;6511;49.746;6.094;2022-07-23T07:19:44;19.60;99.90
12887;DHT22;6511;49.746;6.094;2022-07-23T07:22:10;19.70;99.90
12887;DHT22;6511;49.746;6.094;2022-07-23T07:24:36;19.80;99.90
12887;DHT22;6511;49.746;6.094;2022-07-23T07:27:01;19.80;99.90
12887;DHT22;6511;49.746;6.094;2022-07-23T07:29:27;19.80;99.90
12887;DHT22;6511;49.746;6.094;2022-07-23T07:31:53;20.00;99.90
12887;DHT22;6511;49.746;6.094;2022-07-23T07:34:19;20.00;99.90
12887;DHT22;6511;49.746;6.094;2022-07-23T07:36:45;20.00;99.90
12887;DHT22;6511;49.746;6.094;2022-07-23T07:39:11;20.10;99.90
12887;DHT22;6511;49.746;6.094;2022-07-23T07:41:36;20.10;99.90
12887;DHT22;6511;49.746;6.094;2022-07-23T07:44:02;20.10;99.90
12887;DHT22;6511;49.746;6.094;2022-07-23T07:46:28;20.20;99.90
12887;DHT22;6511;49.746;6.094;2022-07-23T07:48:54;20.20;99.90
12887;DHT22;6511;49.746;6.094;2022-07-23T07:51:19;20.50;99.90
12887;DHT22;6511;49.746;6.094;2022-07-23T07:53:45;20.50;99.90
12887;DHT22;6511;49.746;6.094;2022-07-23T07:56:11;20.50;99.90
12887;DHT22;6511;49.746;6.094;2022-07-23T07:58:37;20.50;99.90
12887;DHT22;6511;49.746;6.094;2022-07-23T08:01:02;20.60;99.90
12887;DHT22;6511;49.746;6.094;2022-07-23T08:03:29;20.50;99.90
12887;DHT22;6511;49.746;6.094;2022-07-23T08:05:55;20.50;99.90
12887;DHT22;6511;49.746;6.094;2022-07-23T08:08:21;20.60;99.90
12887;DHT22;6511;49.746;6.094;2022-07-23T08:10:47;20.80;99.90
12887;DHT22;6511;49.746;6.094;2022-07-23T08:13:14;21.00;99.90
12887;DHT22;6511;49.746;6.094;2022-07-23T08:15:40;21.00;99.90
12887;DHT22;6511;49.746;6.094;2022-07-23T08:18:06;21.10;99.90
12887;DHT22;6511;49.746;6.094;2022-07-23T08:20:32;21.10;99.90
12887;DHT22;6511;49.746;6.094;2022-07-23T08:23:00;21.20;99.90
12887;DHT22;6511;49.746;6.094;2022-07-23T08:25:30;21.40;99.90
12887;DHT22;6511;49.746;6.094;2022-07-23T08:27:57;21.40;99.90
12887;DHT22;6511;49.746;6.094;2022-07-23T08:30:23;21.40;99.90
12887;DHT22;6511;49.746;6.094;2022-07-23T08:32:57;21.50;99.90
12887;DHT22;6511;49.746;6.094;2022-07-23T08:35:32;21.70;99.90
12887;DHT22;6511;49.746;6.094;2022-07-23T08:37:59;21.80;99.90
12887;DHT22;6511;49.746;6.094;2022-07-23T08:40:30;22.10;99.90
12887;DHT22;6511;49.746;6.094;2022-07-23T08:42:57;21.80;99.90
12887;DHT22;6511;49.746;6.094;2022-07-23T08:45:24;22.00;99.90
12887;DHT22;6511;49.746;6.094;2022-07-23T08:47:55;21.70;99.90
12887;DHT22;6511;49.746;6.094;2022-07-23T08:50:22;22.00;99.90
12887;DHT22;6511;49.746;6.094;2022-07-23T08:52:49;22.10;99.90
12887;DHT22;6511;49.746;6.094;2022-07-23T08:55:21;22.10;99.90
12887;DHT22;6511;49.746;6.094;2022-07-23T08:57:49;22.20;99.90
12887;DHT22;6511;49.746;6.094;2022-07-23T09:00:24;22.20;99.90
12887;DHT22;6511;49.746;6.094;2022-07-23T09:02:50;22.40;99.90
12887;DHT22;6511;49.746;6.094;2022-07-23T09:05:17;22.40;99.90
12887;DHT22;6511;49.746;6.094;2022-07-23T09:13:39;22.40;99.90
12887;DHT22;6511;49.746;6.094;2022-07-23T09:16:17;22.30;99.90
12887;DHT22;6511;49.746;6.094;2022-07-23T09:18:51;22.50;99.90
12887;DHT22;6511;49.746;6.094;2022-07-23T09:23:55;22.70;99.90
12887;DHT22;6511;49.746;6.094;2022-07-23T09:26:41;22.90;99.90
12887;DHT22;6511;49.746;6.094;2022-07-23T09:34:27;23.30;99.90
12887;DHT22;6511;49.746;6.094;2022-07-23T09:36:58;23.10;99.90
12887;DHT22;6511;49.746;6.094;2022-07-23T09:39:33;22.90;99.90
12887;DHT22;6511;49.746;6.094;2022-07-23T09:44:42;23.30;99.90
12887;DHT22;6511;49.746;6.094;2022-07-23T09:47:07;23.40;99.90
12887;DHT22;6511;49.746;6.094;2022-07-23T09:49:33;23.50;99.90
12887;DHT22;6511;49.746;6.094;2022-07-23T09:52:02;23.40;99.90
12887;DHT22;6511;49.746;6.094;2022-07-23T09:54:37;23.30;99.90
12887;DHT22;6511;49.746;6.094;2022-07-23T09:57:11;23.30;99.90
12887;DHT22;6511;49.746;6.094;2022-07-23T09:59:41;23.40;99.90
12887;DHT22;6511;49.746;6.094;2022-07-23T10:02:09;23.40;99.90
12887;DHT22;6511;49.746;6.094;2022-07-23T10:04:36;23.70;99.90
12887;DHT22;6511;49.746;6.094;2022-07-23T10:07:04;23.90;99.90
12887;DHT22;6511;49.746;6.094;2022-07-23T10:09:35;24.00;99.90
12887;DHT22;6511;49.746;6.094;2022-07-23T10:12:03;24.10;99.90
12887;DHT22;6511;49.746;6.094;2022-07-23T10:14:48;24.00;99.90
12887;DHT22;6511;49.746;6.094;2022-07-23T10:17:14;24.10;99.90
12887;DHT22;6511;49.746;6.094;2022-07-23T10:19:41;24.20;99.90
12887;DHT22;6511;49.746;6.094;2022-07-23T10:22:09;24.50;99.90
12887;DHT22;6511;49.746;6.094;2022-07-23T10:25:03;24.20;99.90
12887;DHT22;6511;49.746;6.094;2022-07-23T10:28:12;24.10;99.90
12887;DHT22;6511;49.746;6.094;2022-07-23T10:36:50;24.40;99.90
12887;DHT22;6511;49.746;6.094;2022-07-23T10:39:26;24.60;99.90
12887;DHT22;6511;49.746;6.094;2022-07-23T10:42:11;24.70;99.90
12887;DHT22;6511;49.746;6.094;2022-07-23T10:44:40;24.80;99.90
12887;DHT22;6511;49.746;6.094;2022-07-23T10:47:06;24.90;99.90
12887;DHT22;6511;49.746;6.094;2022-07-23T10:49:41;24.70;99.90
12887;DHT22;6511;49.746;6.094;2022-07-23T10:52:33;24.60;99.90
12887;DHT22;6511;49.746;6.094;2022-07-23T10:57:28;24.70;99.90
12887;DHT22;6511;49.746;6.094;2022-07-23T11:02:37;25.90;99.90
12887;DHT22;6511;49.746;6.094;2022-07-23T11:05:11;26.10;99.90
12887;DHT22;6511;49.746;6.094;2022-07-23T11:32:19;26.90;99.90
12887;DHT22;6511;49.746;6.094;2022-07-23T11:34:48;26.50;99.90
12887;DHT22;6511;49.746;6.094;2022-07-23T11:37:50;26.60;99.90
12887;DHT22;6511;49.746;6.094;2022-07-23T11:40:19;27.10;99.90
12887;DHT22;6511;49.746;6.094;2022-07-23T11:42:53;27.50;99.90
12887;DHT22;6511;49.746;6.094;2022-07-23T11:45:21;27.90;99.90
12887;DHT22;6511;49.746;6.094;2022-07-23T11:47:46;27.90;99.90
12887;DHT22;6511;49.746;6.094;2022-07-23T11:50:12;27.80;99.90
12887;DHT22;6511;49.746;6.094;2022-07-23T11:52:39;28.10;99.90
12887;DHT22;6511;49.746;6.094;2022-07-23T11:55:07;28.20;99.90
12887;DHT22;6511;49.746;6.094;2022-07-23T11:57:35;28.20;99.90
12887;DHT22;6511;49.746;6.094;2022-07-23T12:00:11;28.10;99.90
12887;DHT22;6511;49.746;6.094;2022-07-23T12:02:41;28.20;99.90
12887;DHT22;6511;49.746;6.094;2022-07-23T12:05:10;28.40;99.90
12887;DHT22;6511;49.746;6.094;2022-07-23T12:07:38;28.20;99.90
12887;DHT22;6511;49.746;6.094;2022-07-23T12:10:14;27.60;99.90
12887;DHT22;6511;49.746;6.094;2022-07-23T12:12:45;27.70;99.90
12887;DHT22;6511;49.746;6.094;2022-07-23T12:15:13;27.90;99.90
12887;DHT22;6511;49.746;6.094;2022-07-23T12:17:41;28.20;99.90
12887;DHT22;6511;49.746;6.094;2022-07-23T12:20:09;28.50;99.90
12887;DHT22;6511;49.746;6.094;2022-07-23T12:22:49;28.90;99.90
12887;DHT22;6511;49.746;6.094;2022-07-23T12:25:17;28.30;99.90
12887;DHT22;6511;49.746;6.094;2022-07-23T12:27:44;28.70;99.90
12887;DHT22;6511;49.746;6.094;2022-07-23T12:30:28;28.70;99.90
12887;DHT22;6511;49.746;6.094;2022-07-23T12:32:58;28.60;99.90
12887;DHT22;6511;49.746;6.094;2022-07-23T12:35:31;28.50;99.90
12887;DHT22;6511;49.746;6.094;2022-07-23T12:38:04;28.90;99.90
12887;DHT22;6511;49.746;6.094;2022-07-23T12:40:31;28.50;99.90
12887;DHT22;6511;49.746;6.094;2022-07-23T12:43:10;28.90;99.90
12887;DHT22;6511;49.746;6.094;2022-07-23T12:50:53;29.20;99.90
12887;DHT22;6511;49.746;6.094;2022-07-23T12:53:26;29.30;99.90
12887;DHT22;6511;49.746;6.094;2022-07-23T13:01:31;30.00;99.90
12887;DHT22;6511;49.746;6.094;2022-07-23T13:04:14;30.20;99.90
12887;DHT22;6511;49.746;6.094;2022-07-23T13:06:46;30.60;99.90
12887;DHT22;6511;49.746;6.094;2022-07-23T13:09:14;30.40;99.90
12887;DHT22;6511;49.746;6.094;2022-07-23T13:11:40;30.20;99.90
12887;DHT22;6511;49.746;6.094;2022-07-23T13:14:06;30.50;99.90
12887;DHT22;6511;49.746;6.094;2022-07-23T13:16:32;30.40;99.90
12887;DHT22;6511;49.746;6.094;2022-07-23T13:19:00;30.30;99.90
12887;DHT22;6511;49.746;6.094;2022-07-23T13:21:29;30.20;99.90
12887;DHT22;6511;49.746;6.094;2022-07-23T13:23:56;29.40;99.90
12887;DHT22;6511;49.746;6.094;2022-07-23T13:26:22;29.10;99.90
12887;DHT22;6511;49.746;6.094;2022-07-23T13:28:48;28.90;99.90
12887;DHT22;6511;49.746;6.094;2022-07-23T13:31:16;28.40;99.90
12887;DHT22;6511;49.746;6.094;2022-07-23T13:33:42;28.20;99.90
12887;DHT22;6511;49.746;6.094;2022-07-23T13:36:08;28.00;99.90
12887;DHT22;6511;49.746;6.094;2022-07-23T13:38:34;28.70;99.90
12887;DHT22;6511;49.746;6.094;2022-07-23T13:41:00;28.80;99.90
12887;DHT22;6511;49.746;6.094;2022-07-23T13:43:26;29.00;99.90
12887;DHT22;6511;49.746;6.094;2022-07-23T13:51:07;27.90;99.90
12887;DHT22;6511;49.746;6.094;2022-07-23T13:53:33;28.60;99.90
12887;DHT22;6511;49.746;6.094;2022-07-23T13:56:00;29.10;99.90
12887;DHT22;6511;49.746;6.094;2022-07-23T13:58:29;29.30;99.90
12887;DHT22;6511;49.746;6.094;2022-07-23T14:00:55;29.30;99.90
12887;DHT22;6511;49.746;6.094;2022-07-23T14:03:21;28.90;99.90
12887;DHT22;6511;49.746;6.094;2022-07-23T14:05:51;28.80;99.90
12887;DHT22;6511;49.746;6.094;2022-07-23T14:08:18;29.20;99.90
12887;DHT22;6511;49.746;6.094;2022-07-23T14:10:43;28.40;99.90
12887;DHT22;6511;49.746;6.094;2022-07-23T14:13:09;27.90;99.90
12887;DHT22;6511;49.746;6.094;2022-07-23T14:15:35;28.30;99.90
12887;DHT22;6511;49.746;6.094;2022-07-23T14:18:02;28.30;99.90
12887;DHT22;6511;49.746;6.094;2022-07-23T14:20:28;28.00;99.90
12887;DHT22;6511;49.746;6.094;2022-07-23T14:22:54;28.10;99.90
12887;DHT22;6511;49.746;6.094;2022-07-23T14:25:21;27.80;99.90
12887;DHT22;6511;49.746;6.094;2022-07-23T14:27:47;27.50;99.90
12887;DHT22;6511;49.746;6.094;2022-07-23T14:30:16;27.70;99.90
12887;DHT22;6511;49.746;6.094;2022-07-23T14:32:42;27.80;99.90
12887;DHT22;6511;49.746;6.094;2022-07-23T14:35:08;27.80;99.90
12887;DHT22;6511;49.746;6.094;2022-07-23T14:37:39;28.50;99.90
12887;DHT22;6511;49.746;6.094;2022-07-23T14:40:08;29.00;99.90
12887;DHT22;6511;49.746;6.094;2022-07-23T14:42:34;29.20;99.90
12887;DHT22;6511;49.746;6.094;2022-07-23T14:44:59;29.30;99.90
12887;DHT22;6511;49.746;6.094;2022-07-23T14:47:25;29.10;99.90
12887;DHT22;6511;49.746;6.094;2022-07-23T14:49:51;29.40;99.90
12887;DHT22;6511;49.746;6.094;2022-07-23T14:52:17;29.10;99.90
12887;DHT22;6511;49.746;6.094;2022-07-23T14:54:43;29.00;99.90
12887;DHT22;6511;49.746;6.094;2022-07-23T14:57:09;29.40;99.90
12887;DHT22;6511;49.746;6.094;2022-07-23T14:59:34;29.90;99.90
12887;DHT22;6511;49.746;6.094;2022-07-23T15:04:31;29.50;99.90
12887;DHT22;6511;49.746;6.094;2022-07-23T15:06:57;29.50;99.90
12887;DHT22;6511;49.746;6.094;2022-07-23T15:09:22;28.50;99.90
12887;DHT22;6511;49.746;6.094;2022-07-23T15:11:48;28.30;99.90
12887;DHT22;6511;49.746;6.094;2022-07-23T15:14:14;28.50;99.90
12887;DHT22;6511;49.746;6.094;2022-07-23T15:16:40;29.10;99.90
12887;DHT22;6511;49.746;6.094;2022-07-23T15:19:05;29.30;99.90
12887;DHT22;6511;49.746;6.094;2022-07-23T15:21:31;29.40;99.90
12887;DHT22;6511;49.746;6.094;2022-07-23T15:23:57;29.70;99.90
12887;DHT22;6511;49.746;6.094;2022-07-23T15:26:27;30.10;99.90
12887;DHT22;6511;49.746;6.094;2022-07-23T15:28:53;29.60;99.90
12887;DHT22;6511;49.746;6.094;2022-07-23T15:31:18;29.00;99.90
12887;DHT22;6511;49.746;6.094;2022-07-23T15:33:44;29.10;99.90
12887;DHT22;6511;49.746;6.094;2022-07-23T15:36:13;28.90;99.90
12887;DHT22;6511;49.746;6.094;2022-07-23T15:38:39;28.70;99.90
12887;DHT22;6511;49.746;6.094;2022-07-23T15:41:05;28.70;99.90
12887;DHT22;6511;49.746;6.094;2022-07-23T15:43:30;28.70;99.90
12887;DHT22;6511;49.746;6.094;2022-07-23T15:45:56;28.90;99.90
12887;DHT22;6511;49.746;6.094;2022-07-23T15:48:35;29.30;99.90
12887;DHT22;6511;49.746;6.094;2022-07-23T15:51:01;29.80;99.90
12887;DHT22;6511;49.746;6.094;2022-07-23T15:53:26;29.20;99.90
12887;DHT22;6511;49.746;6.094;2022-07-23T15:55:52;29.20;99.90
12887;DHT22;6511;49.746;6.094;2022-07-23T15:58:18;29.60;99.90
12887;DHT22;6511;49.746;6.094;2022-07-23T16:00:43;29.30;99.90
12887;DHT22;6511;49.746;6.094;2022-07-23T16:03:09;29.60;99.90
12887;DHT22;6511;49.746;6.094;2022-07-23T16:05:35;30.00;99.90
12887;DHT22;6511;49.746;6.094;2022-07-23T16:08:04;30.30;99.90
12887;DHT22;6511;49.746;6.094;2022-07-23T16:10:30;30.50;99.90
12887;DHT22;6511;49.746;6.094;2022-07-23T16:12:56;30.20;99.90
12887;DHT22;6511;49.746;6.094;2022-07-23T16:15:22;29.80;99.90
12887;DHT22;6511;49.746;6.094;2022-07-23T16:17:48;29.90;99.90
12887;DHT22;6511;49.746;6.094;2022-07-23T16:20:13;29.70;99.90
12887;DHT22;6511;49.746;6.094;2022-07-23T16:22:39;28.90;99.90
12887;DHT22;6511;49.746;6.094;2022-07-23T16:25:06;28.40;99.90
12887;DHT22;6511;49.746;6.094;2022-07-23T16:27:34;28.20;99.90
12887;DHT22;6511;49.746;6.094;2022-07-23T16:30:00;28.70;99.90
12887;DHT22;6511;49.746;6.094;2022-07-23T16:32:25;29.10;99.90
12887;DHT22;6511;49.746;6.094;2022-07-23T16:34:51;28.60;99.90
12887;DHT22;6511;49.746;6.094;2022-07-23T16:37:17;28.20;99.90
12887;DHT22;6511;49.746;6.094;2022-07-23T16:39:42;28.20;99.90
12887;DHT22;6511;49.746;6.094;2022-07-23T16:42:08;28.70;99.90
12887;DHT22;6511;49.746;6.094;2022-07-23T16:44:34;29.10;99.90
12887;DHT22;6511;49.746;6.094;2022-07-23T16:47:00;29.20;99.90
12887;DHT22;6511;49.746;6.094;2022-07-23T16:49:25;29.50;99.90
12887;DHT22;6511;49.746;6.094;2022-07-23T16:51:51;29.10;99.90
12887;DHT22;6511;49.746;6.094;2022-07-23T16:54:17;28.90;99.90
12887;DHT22;6511;49.746;6.094;2022-07-23T16:56:42;28.50;99.90